createdAt,value
2023-03-03T00:00:11.232Z,8.90
2023-03-03T00:02:37.752Z,8.90
2023-03-03T00:05:04.263Z,8.90
2023-03-03T00:07:30.801Z,8.90
2023-03-03T00:09:57.317Z,8.90
2023-03-03T00:12:23.842Z,8.90
2023-03-03T00:14:50.310Z,8.90
2023-03-03T00:17:16.832Z,8.90
2023-03-03T00:19:43.298Z,8.90
2023-03-03T00:22:09.801Z,8.90
2023-03-03T00:24:36.282Z,8.90
2023-03-03T00:27:02.782Z,8.90
2023-03-03T00:29:29.275Z,8.90
2023-03-03T00:31:55.824Z,8.90
2023-03-03T00:34:22.346Z,8.90
2023-03-03T00:36:48.844Z,8.90
2023-03-03T00:39:15.294Z,8.90
2023-03-03T00:41:41.791Z,8.90
2023-03-03T00:44:08.296Z,8.90
2023-03-03T00:46:34.977Z,8.90
2023-03-03T00:49:01.471Z,8.90
2023-03-03T00:51:27.946Z,8.90
2023-03-03T00:53:54.429Z,8.90
2023-03-03T00:56:20.894Z,8.90
2023-03-03T01:01:37.840Z,8.80
2023-03-03T01:04:04.341Z,8.90
2023-03-03T01:06:30.824Z,8.80
2023-03-03T01:08:57.326Z,8.90
2023-03-03T01:11:23.881Z,8.80
2023-03-03T01:13:56.242Z,8.90
2023-03-03T01:16:26.201Z,8.80
2023-03-03T01:18:52.688Z,8.80
2023-03-03T01:21:20.102Z,8.90
2023-03-03T01:23:46.582Z,8.90
2023-03-03T01:26:13.073Z,9.00
2023-03-03T01:28:39.579Z,8.90
2023-03-03T01:31:06.205Z,8.90
2023-03-03T01:33:32.689Z,8.90
2023-03-03T01:36:02.186Z,8.90
2023-03-03T01:38:32.170Z,8.90
2023-03-03T01:41:02.220Z,8.90
2023-03-03T01:43:28.707Z,8.90
2023-03-03T01:45:55.170Z,8.90
2023-03-03T01:48:21.643Z,8.80
2023-03-03T01:50:48.125Z,8.90
2023-03-03T01:53:14.629Z,8.80
2023-03-03T01:55:41.118Z,8.90
2023-03-03T01:58:07.597Z,8.80
2023-03-03T02:00:34.083Z,8.80
2023-03-03T02:03:00.654Z,8.80
2023-03-03T02:05:27.172Z,8.80
2023-03-03T02:07:53.671Z,8.80
2023-03-03T02:10:20.186Z,8.80
2023-03-03T02:12:46.669Z,8.90
2023-03-03T02:15:13.134Z,8.80
2023-03-03T02:17:39.612Z,8.90
2023-03-03T02:20:06.093Z,8.80
2023-03-03T02:22:32.605Z,8.90
2023-03-03T02:24:59.082Z,8.90
2023-03-03T02:27:25.542Z,8.80
2023-03-03T02:29:52.024Z,8.80
2023-03-03T02:32:18.518Z,8.80
2023-03-03T02:34:45.034Z,8.80
2023-03-03T02:37:11.510Z,8.80
2023-03-03T02:39:37.981Z,8.80
2023-03-03T02:42:04.463Z,8.80
2023-03-03T02:44:30.967Z,8.80
2023-03-03T02:46:57.449Z,8.80
2023-03-03T02:49:23.950Z,8.80
2023-03-03T02:51:50.441Z,8.90
2023-03-03T02:54:16.912Z,8.80
2023-03-03T02:56:43.384Z,8.90
2023-03-03T02:59:09.865Z,8.90
2023-03-03T03:01:36.353Z,8.90
2023-03-03T03:04:02.864Z,8.90
2023-03-03T03:06:29.337Z,8.90
2023-03-03T03:08:55.853Z,8.90
2023-03-03T03:11:22.330Z,8.90
2023-03-03T03:13:48.809Z,8.90
2023-03-03T03:16:15.339Z,8.90
2023-03-03T03:18:41.856Z,8.90
2023-03-03T03:21:14.260Z,8.90
2023-03-03T03:23:40.749Z,8.90
2023-03-03T03:26:07.237Z,8.80
2023-03-03T03:28:33.730Z,8.90
2023-03-03T03:31:00.286Z,8.80
2023-03-03T03:33:26.793Z,8.90
2023-03-03T03:35:53.305Z,8.80
2023-03-03T03:38:20.214Z,8.90
2023-03-03T03:40:46.774Z,8.90
2023-03-03T03:43:13.255Z,8.90
2023-03-03T03:45:39.775Z,8.90
2023-03-03T03:48:06.255Z,8.90
2023-03-03T03:50:32.738Z,8.90
2023-03-03T03:52:59.228Z,8.90
2023-03-03T03:55:25.732Z,8.90
2023-03-03T03:57:52.214Z,8.80
2023-03-03T04:00:18.704Z,8.80
2023-03-03T04:02:45.261Z,8.80
2023-03-03T04:05:11.886Z,8.80
2023-03-03T04:07:38.350Z,8.80
2023-03-03T04:10:04.850Z,8.70
2023-03-03T04:12:31.343Z,8.70
2023-03-03T04:14:57.882Z,8.70
2023-03-03T04:17:24.385Z,8.80
2023-03-03T04:19:50.880Z,8.80
2023-03-03T04:22:17.354Z,8.80
2023-03-03T04:24:43.838Z,8.80
2023-03-03T04:27:10.327Z,8.90
2023-03-03T04:29:36.807Z,8.90
2023-03-03T04:32:03.320Z,8.80
2023-03-03T04:34:29.848Z,8.80
2023-03-03T04:36:56.396Z,8.90
2023-03-03T04:39:22.881Z,8.80
2023-03-03T04:41:49.369Z,8.80
2023-03-03T04:44:15.848Z,8.80
2023-03-03T04:46:42.353Z,8.80
2023-03-03T04:49:10.759Z,8.80
2023-03-03T04:51:38.590Z,8.80
2023-03-03T04:54:05.068Z,8.80
2023-03-03T04:56:32.371Z,8.80
2023-03-03T04:58:58.855Z,8.90
2023-03-03T05:01:25.488Z,8.80
2023-03-03T05:03:52.067Z,8.80
2023-03-03T05:06:18.574Z,8.80
2023-03-03T05:08:45.048Z,8.70
2023-03-03T05:11:11.546Z,8.70
2023-03-03T05:13:38.028Z,8.70
2023-03-03T05:16:04.526Z,8.80
2023-03-03T05:18:32.348Z,8.80
2023-03-03T05:20:58.841Z,8.80
2023-03-03T05:23:25.321Z,8.80
2023-03-03T05:25:51.784Z,8.80
2023-03-03T05:28:18.260Z,8.80
2023-03-03T05:30:44.723Z,8.80
2023-03-03T05:33:11.340Z,8.80
2023-03-03T05:35:37.836Z,8.80
2023-03-03T05:38:05.502Z,8.80
2023-03-03T05:40:32.094Z,8.70
2023-03-03T05:42:58.630Z,8.80
2023-03-03T05:45:32.452Z,8.70
2023-03-03T05:47:58.952Z,8.80
2023-03-03T05:50:25.433Z,8.80
2023-03-03T05:52:51.933Z,8.80
2023-03-03T05:55:18.422Z,8.70
2023-03-03T05:57:44.902Z,8.80
2023-03-03T06:00:11.385Z,8.70
2023-03-03T06:02:37.911Z,8.80
2023-03-03T06:05:04.415Z,8.80
2023-03-03T06:07:30.934Z,8.80
2023-03-03T06:09:57.419Z,8.70
2023-03-03T06:12:23.901Z,8.70
2023-03-03T06:14:50.355Z,8.70
2023-03-03T06:17:16.899Z,8.70
2023-03-03T06:19:43.395Z,8.70
2023-03-03T06:22:09.880Z,8.70
2023-03-03T06:24:36.367Z,8.80
2023-03-03T06:27:02.847Z,8.70
2023-03-03T06:29:29.303Z,8.80
2023-03-03T06:31:55.883Z,8.80
2023-03-03T06:34:22.458Z,8.80
2023-03-03T06:36:48.950Z,8.80
2023-03-03T06:39:15.411Z,8.90
2023-03-03T06:41:41.889Z,8.90
2023-03-03T06:44:08.355Z,8.80
2023-03-03T06:46:35.054Z,8.90
2023-03-03T06:49:01.535Z,8.90
2023-03-03T06:51:28.025Z,8.90
2023-03-03T06:53:54.521Z,8.90
2023-03-03T06:56:21.023Z,8.90
2023-03-03T06:58:47.514Z,8.90
2023-03-03T07:01:14.044Z,8.90
2023-03-03T07:03:40.530Z,8.80
2023-03-03T07:06:07.031Z,8.90
2023-03-03T07:08:33.527Z,8.90
2023-03-03T07:11:00.009Z,8.80
2023-03-03T07:13:26.528Z,8.80
2023-03-03T07:15:53.014Z,8.80
2023-03-03T07:18:19.499Z,8.80
2023-03-03T07:20:45.993Z,8.80
2023-03-03T07:23:12.528Z,8.90
2023-03-03T07:25:39.037Z,8.80
2023-03-03T07:28:05.538Z,8.80
2023-03-03T07:30:32.079Z,8.80
2023-03-03T07:32:58.636Z,8.80
2023-03-03T07:35:25.153Z,8.80
2023-03-03T07:37:51.644Z,8.80
2023-03-03T07:40:20.483Z,8.80
2023-03-03T07:42:46.942Z,8.80
2023-03-03T07:45:13.413Z,8.80
2023-03-03T07:47:39.891Z,8.80
2023-03-03T07:50:06.384Z,8.90
2023-03-03T07:52:32.857Z,8.80
2023-03-03T07:54:59.358Z,8.80
2023-03-03T07:57:26.084Z,8.90
2023-03-03T07:59:52.567Z,8.90
2023-03-03T08:02:19.073Z,8.90
2023-03-03T08:04:45.667Z,8.90
2023-03-03T08:07:12.180Z,8.90
2023-03-03T08:09:38.670Z,8.90
2023-03-03T08:12:05.164Z,8.90
2023-03-03T08:14:32.499Z,8.80
2023-03-03T08:17:02.499Z,8.90
2023-03-03T08:19:29.005Z,8.90
2023-03-03T08:21:55.494Z,8.90
2023-03-03T08:24:22.013Z,8.90
2023-03-03T08:26:48.500Z,8.90
2023-03-03T08:29:20.498Z,8.80
2023-03-03T08:31:47.014Z,8.90
2023-03-03T08:34:13.524Z,8.90
2023-03-03T08:36:44.507Z,8.90
2023-03-03T08:39:10.978Z,8.90
2023-03-03T08:41:37.492Z,8.90
2023-03-03T08:44:03.982Z,8.90
2023-03-03T08:46:30.543Z,8.80
2023-03-03T08:48:57.046Z,8.90
2023-03-03T08:51:26.518Z,8.90
2023-03-03T08:53:52.996Z,8.80
2023-03-03T08:56:19.460Z,8.80
2023-03-03T08:59:01.322Z,8.80
2023-03-03T09:01:28.605Z,8.80
2023-03-03T09:03:55.108Z,8.80
2023-03-03T09:06:21.605Z,8.80
2023-03-03T09:08:48.088Z,8.80
2023-03-03T09:11:14.589Z,8.80
2023-03-03T09:13:41.075Z,8.80
2023-03-03T09:16:07.584Z,8.80
2023-03-03T09:18:34.085Z,8.80
2023-03-03T09:21:00.560Z,8.80
2023-03-03T09:23:32.694Z,8.80
2023-03-03T09:25:59.195Z,8.80
2023-03-03T09:28:25.683Z,8.80
2023-03-03T09:30:52.200Z,8.70
2023-03-03T09:33:18.681Z,8.70
2023-03-03T09:35:45.205Z,8.70
2023-03-03T09:38:11.711Z,8.80
2023-03-03T09:40:38.214Z,8.80
2023-03-03T09:43:04.698Z,8.80
2023-03-03T09:45:31.226Z,8.80
2023-03-03T09:47:57.712Z,8.80
2023-03-03T09:50:24.215Z,8.80
2023-03-03T09:52:50.703Z,8.80
2023-03-03T09:55:17.212Z,8.80
2023-03-03T09:57:43.683Z,8.90
2023-03-03T10:00:10.164Z,8.90
2023-03-03T10:02:36.711Z,8.90
2023-03-03T10:05:03.193Z,8.80
2023-03-03T10:07:29.673Z,8.80
2023-03-03T10:09:56.187Z,8.80
2023-03-03T10:12:22.670Z,8.80
2023-03-03T10:14:49.375Z,8.80
2023-03-03T10:17:15.929Z,8.80
2023-03-03T10:19:42.419Z,8.90
2023-03-03T10:22:08.916Z,8.80
2023-03-03T10:24:35.398Z,8.80
2023-03-03T10:27:13.076Z,8.80
2023-03-03T10:29:40.191Z,8.80
2023-03-03T10:32:06.815Z,8.80
2023-03-03T10:34:33.339Z,8.80
2023-03-03T10:36:59.838Z,8.80
2023-03-03T10:39:26.322Z,8.80
2023-03-03T10:41:52.795Z,8.80
2023-03-03T10:44:19.268Z,8.90
2023-03-03T10:46:45.767Z,8.80
2023-03-03T10:49:12.245Z,8.80
2023-03-03T10:51:38.749Z,8.90
2023-03-03T10:54:05.325Z,8.90
2023-03-03T10:56:43.050Z,8.90
2023-03-03T10:59:17.024Z,8.90
2023-03-03T11:01:43.524Z,8.90
2023-03-03T11:04:10.074Z,8.90
2023-03-03T11:06:36.657Z,8.90
2023-03-03T11:09:03.168Z,8.90
2023-03-03T11:11:29.649Z,8.90
2023-03-03T11:13:56.107Z,8.90
2023-03-03T11:16:22.624Z,8.90
2023-03-03T11:18:49.120Z,8.80
2023-03-03T11:21:15.614Z,8.90
2023-03-03T11:23:42.148Z,8.90
2023-03-03T11:26:08.645Z,8.80
2023-03-03T11:28:35.132Z,8.80
2023-03-03T11:31:01.680Z,8.90
2023-03-03T11:33:28.230Z,8.90
2023-03-03T11:35:54.745Z,8.90
2023-03-03T11:38:21.245Z,8.90
2023-03-03T11:40:47.704Z,8.90
2023-03-03T11:43:26.306Z,8.90
2023-03-03T11:46:00.565Z,8.90
2023-03-03T11:48:27.080Z,8.90
2023-03-03T11:50:53.568Z,8.90
2023-03-03T11:53:26.669Z,9.00
2023-03-03T11:55:53.136Z,8.90
2023-03-03T11:58:19.611Z,8.90
2023-03-03T12:00:46.088Z,8.90
2023-03-03T12:03:12.576Z,8.90
2023-03-03T12:05:39.064Z,8.90
2023-03-03T12:08:05.583Z,8.90
2023-03-03T12:10:32.055Z,8.90
2023-03-03T12:13:02.682Z,8.80
2023-03-03T12:15:29.155Z,8.90
2023-03-03T12:17:55.667Z,8.80
2023-03-03T12:20:22.155Z,8.90
2023-03-03T12:22:57.778Z,8.90
2023-03-03T12:25:31.153Z,8.90
2023-03-03T12:27:57.722Z,8.80
2023-03-03T12:30:24.287Z,8.90
2023-03-03T12:32:50.884Z,8.90
2023-03-03T12:35:17.439Z,8.90
2023-03-03T12:37:44.016Z,8.90
2023-03-03T12:40:10.574Z,8.90
2023-03-03T12:42:37.129Z,8.90
2023-03-03T12:45:03.702Z,9.00
2023-03-03T12:47:30.288Z,9.00
2023-03-03T12:50:06.787Z,8.90
2023-03-03T12:52:34.290Z,9.00
2023-03-03T12:55:00.850Z,9.00
2023-03-03T12:57:27.418Z,9.00
2023-03-03T12:59:53.982Z,9.00
2023-03-03T13:02:20.537Z,9.00
2023-03-03T13:04:47.097Z,9.00
2023-03-03T13:07:13.656Z,9.00
2023-03-03T13:09:40.252Z,8.90
2023-03-03T13:12:06.807Z,8.90
2023-03-03T13:14:33.408Z,9.00
2023-03-03T13:16:59.983Z,8.90
2023-03-03T13:19:26.573Z,9.00
2023-03-03T13:21:53.275Z,9.00
2023-03-03T13:24:19.855Z,9.00
2023-03-03T13:26:46.410Z,9.00
2023-03-03T13:29:12.988Z,9.00
2023-03-03T13:31:39.563Z,9.00
2023-03-03T13:34:06.182Z,9.00
2023-03-03T13:36:32.766Z,9.00
2023-03-03T13:39:02.820Z,9.00
2023-03-03T13:41:29.373Z,9.00
2023-03-03T13:43:55.947Z,9.00
2023-03-03T13:46:22.528Z,9.00
2023-03-03T13:48:49.086Z,9.10
2023-03-03T13:51:15.656Z,9.00
2023-03-03T13:53:42.210Z,9.00
2023-03-03T13:56:09.877Z,9.00
2023-03-03T13:58:36.436Z,9.10
2023-03-03T14:01:03.072Z,9.10
2023-03-03T14:03:29.663Z,9.10
2023-03-03T14:05:56.245Z,9.00
2023-03-03T14:08:22.809Z,9.10
2023-03-03T14:10:49.467Z,9.10
2023-03-03T14:13:16.032Z,9.10
2023-03-03T14:15:42.802Z,9.10
2023-03-03T14:18:09.368Z,9.10
2023-03-03T14:20:36.001Z,9.10
2023-03-03T14:23:02.572Z,9.10
2023-03-03T14:25:29.152Z,9.10
2023-03-03T14:27:55.714Z,9.10
2023-03-03T14:30:22.307Z,9.10
2023-03-03T14:32:48.905Z,9.10
2023-03-03T14:35:15.487Z,9.10
2023-03-03T14:37:42.064Z,9.10
2023-03-03T14:40:08.622Z,9.10
2023-03-03T14:42:35.179Z,9.10
2023-03-03T14:45:01.737Z,9.10
2023-03-03T14:47:28.304Z,9.10
2023-03-03T14:49:54.892Z,9.10
2023-03-03T14:52:21.455Z,9.20
2023-03-03T14:54:48.031Z,9.10
2023-03-03T14:57:14.602Z,9.20
2023-03-03T14:59:41.150Z,9.20
2023-03-03T15:02:07.721Z,9.20
2023-03-03T15:04:34.282Z,9.20
2023-03-03T15:07:00.860Z,9.20
2023-03-03T15:09:27.427Z,9.20
2023-03-03T15:11:54.016Z,9.20
2023-03-03T15:14:20.592Z,9.20
2023-03-03T15:16:47.171Z,9.20
2023-03-03T15:19:13.761Z,9.30
2023-03-03T15:21:40.362Z,9.30
2023-03-03T15:24:08.909Z,9.30
2023-03-03T15:26:35.512Z,9.30
2023-03-03T15:29:02.080Z,9.30
2023-03-03T15:31:28.741Z,9.30
2023-03-03T15:33:55.354Z,9.40
2023-03-03T15:36:21.932Z,9.40
2023-03-03T15:38:48.508Z,9.60
2023-03-03T15:41:15.099Z,10.10
2023-03-03T15:43:45.319Z,10.40
2023-03-03T15:46:11.994Z,10.60
2023-03-03T15:48:38.569Z,10.60
2023-03-03T15:51:08.947Z,10.30
2023-03-03T15:53:35.507Z,10.00
2023-03-03T15:56:02.089Z,9.90
2023-03-03T15:58:28.654Z,9.70
2023-03-03T16:00:55.262Z,9.70
2023-03-03T16:03:21.865Z,9.70
2023-03-03T16:05:48.388Z,9.60
2023-03-03T16:08:14.888Z,9.60
2023-03-03T16:10:41.382Z,9.60
2023-03-03T16:13:07.892Z,9.50
2023-03-03T16:15:34.348Z,9.50
2023-03-03T16:18:00.837Z,9.50
2023-03-03T16:20:27.321Z,9.50
2023-03-03T16:22:53.807Z,9.50
2023-03-03T16:25:20.310Z,9.50
2023-03-03T16:27:46.802Z,9.50
2023-03-03T16:30:13.327Z,9.50
2023-03-03T16:32:39.846Z,9.50
2023-03-03T16:35:06.370Z,9.50
2023-03-03T16:37:32.858Z,9.50
2023-03-03T16:39:59.320Z,9.50
2023-03-03T16:42:25.802Z,9.50
2023-03-03T16:44:52.289Z,9.50
2023-03-03T16:47:18.781Z,9.40
2023-03-03T16:49:45.252Z,9.40
2023-03-03T16:52:11.768Z,9.50
2023-03-03T16:54:38.224Z,9.50
2023-03-03T16:57:04.735Z,9.40
2023-03-03T16:59:31.215Z,9.40
2023-03-03T17:01:57.727Z,9.40
2023-03-03T17:04:24.322Z,9.40
2023-03-03T17:06:50.878Z,9.40
2023-03-03T17:09:30.312Z,9.40
2023-03-03T17:11:58.533Z,9.40
2023-03-03T17:14:24.998Z,9.40
2023-03-03T17:16:53.013Z,9.40
2023-03-03T17:19:20.274Z,9.40
2023-03-03T17:21:46.739Z,9.40
2023-03-03T17:24:13.251Z,9.40
2023-03-03T17:26:39.750Z,9.40
2023-03-03T17:29:06.249Z,9.40
2023-03-03T17:31:32.767Z,9.40
2023-03-03T17:33:59.282Z,9.40
2023-03-03T17:36:25.755Z,9.40
2023-03-03T17:38:52.260Z,9.40
2023-03-03T17:41:18.736Z,9.30
2023-03-03T17:43:45.219Z,9.40
2023-03-03T17:46:11.719Z,9.30
2023-03-03T17:48:38.212Z,9.30
2023-03-03T17:51:04.690Z,9.40
2023-03-03T17:53:31.180Z,9.40
2023-03-03T17:55:57.650Z,9.30
2023-03-03T17:58:24.139Z,9.40
2023-03-03T18:00:50.614Z,9.30
2023-03-03T18:03:17.131Z,9.30
2023-03-03T18:05:43.643Z,9.30
2023-03-03T18:08:10.109Z,9.30
2023-03-03T18:10:36.585Z,9.30
2023-03-03T18:13:03.068Z,9.40
2023-03-03T18:15:29.667Z,9.30
2023-03-03T18:17:56.161Z,9.30
2023-03-03T18:20:22.652Z,9.30
2023-03-03T18:22:49.127Z,9.30
2023-03-03T18:25:15.626Z,9.30
2023-03-03T18:27:42.094Z,9.30
2023-03-03T18:30:08.575Z,9.30
2023-03-03T18:32:35.085Z,9.30
2023-03-03T18:35:02.989Z,9.30
2023-03-03T18:37:29.478Z,9.30
2023-03-03T18:39:55.978Z,9.30
2023-03-03T18:42:22.459Z,9.30
2023-03-03T18:44:48.941Z,9.30
2023-03-03T18:47:15.433Z,9.30
2023-03-03T18:49:41.938Z,9.30
2023-03-03T18:52:08.417Z,9.30
2023-03-03T18:54:39.000Z,9.20
2023-03-03T18:57:05.464Z,9.20
2023-03-03T18:59:31.974Z,9.20
2023-03-03T19:01:58.500Z,9.20
2023-03-03T19:04:25.095Z,9.20
2023-03-03T19:06:51.668Z,9.20
2023-03-03T19:09:18.167Z,9.20
2023-03-03T19:11:44.685Z,9.30
2023-03-03T19:14:11.164Z,9.20
2023-03-03T19:16:37.663Z,9.20
2023-03-03T19:19:04.134Z,9.20
2023-03-03T19:21:30.602Z,9.20
2023-03-03T19:23:57.078Z,9.20
2023-03-03T19:26:23.556Z,9.20
2023-03-03T19:28:50.027Z,9.20
2023-03-03T19:31:16.521Z,9.20
2023-03-03T19:33:43.026Z,9.20
2023-03-03T19:36:09.496Z,9.20
2023-03-03T19:38:35.976Z,9.20
2023-03-03T19:41:02.481Z,9.20
2023-03-03T19:43:28.969Z,9.20
2023-03-03T19:45:55.458Z,9.20
2023-03-03T19:48:21.939Z,9.20
2023-03-03T19:50:48.447Z,9.20
2023-03-03T19:53:14.928Z,9.20
2023-03-03T19:55:41.420Z,9.20
2023-03-03T19:58:07.909Z,9.20
2023-03-03T20:00:34.396Z,9.20
2023-03-03T20:03:00.852Z,9.20
2023-03-03T20:05:27.321Z,9.10
2023-03-03T20:07:53.809Z,9.10
2023-03-03T20:10:20.292Z,9.10
2023-03-03T20:12:46.764Z,9.20
2023-03-03T20:15:13.274Z,9.20
2023-03-03T20:17:39.761Z,9.20
2023-03-03T20:20:06.281Z,9.20
2023-03-03T20:22:32.757Z,9.20
2023-03-03T20:24:59.248Z,9.20
2023-03-03T20:27:25.722Z,9.20
2023-03-03T20:29:52.372Z,9.20
2023-03-03T20:32:18.903Z,9.20
2023-03-03T20:34:47.225Z,9.20
2023-03-03T20:37:13.864Z,9.20
2023-03-03T20:39:40.369Z,9.10
2023-03-03T20:42:06.859Z,9.20
2023-03-03T20:44:33.336Z,9.20
2023-03-03T20:46:59.856Z,9.20
2023-03-03T20:49:26.346Z,9.20
2023-03-03T20:51:52.872Z,9.20
2023-03-03T20:54:19.371Z,9.20
2023-03-03T20:56:45.894Z,9.20
2023-03-03T20:59:12.390Z,9.20
2023-03-03T21:01:38.882Z,9.20
2023-03-03T21:04:05.392Z,9.20
2023-03-03T21:06:31.888Z,9.20
2023-03-03T21:08:58.372Z,9.20
2023-03-03T21:11:24.861Z,9.20
2023-03-03T21:13:51.340Z,9.20
2023-03-03T21:16:17.864Z,9.20
2023-03-03T21:18:44.362Z,9.10
2023-03-03T21:21:10.859Z,9.10
2023-03-03T21:23:37.334Z,9.10
2023-03-03T21:26:03.815Z,9.20
2023-03-03T21:28:30.310Z,9.20
2023-03-03T21:30:56.811Z,9.20
2023-03-03T21:33:23.272Z,9.20
2023-03-03T21:35:49.804Z,9.10
2023-03-03T21:38:16.270Z,9.20
2023-03-03T21:40:42.758Z,9.20
2023-03-03T21:43:09.246Z,9.20
2023-03-03T21:45:35.786Z,9.20
2023-03-03T21:48:02.804Z,9.20
2023-03-03T21:50:29.325Z,9.20
2023-03-03T21:52:55.809Z,9.20
2023-03-03T21:55:22.302Z,9.20
2023-03-03T21:57:48.760Z,9.10
2023-03-03T22:00:15.260Z,9.20
2023-03-03T22:02:41.742Z,9.20
2023-03-03T22:05:08.161Z,9.20
2023-03-03T22:07:34.669Z,9.10
2023-03-03T22:10:01.149Z,9.10
2023-03-03T22:12:27.651Z,9.20
2023-03-03T22:14:54.109Z,9.10
2023-03-03T22:17:20.597Z,9.20
2023-03-03T22:19:47.061Z,9.10
2023-03-03T22:22:13.534Z,9.20
2023-03-03T22:24:40.010Z,9.10
2023-03-03T22:27:06.496Z,9.10
2023-03-03T22:29:32.984Z,9.10
2023-03-03T22:31:59.478Z,9.10
2023-03-03T22:34:26.150Z,9.10
2023-03-03T22:36:52.640Z,9.10
2023-03-03T22:39:19.122Z,9.10
2023-03-03T22:41:51.204Z,9.10
2023-03-03T22:44:17.677Z,9.10
2023-03-03T22:46:44.152Z,9.10
2023-03-03T22:49:10.630Z,9.10
2023-03-03T22:51:37.092Z,9.10
2023-03-03T22:54:03.561Z,9.10
2023-03-03T22:56:30.036Z,9.10
2023-03-03T22:58:56.496Z,9.10
2023-03-03T23:01:22.974Z,9.10
2023-03-03T23:03:51.172Z,9.20
2023-03-03T23:06:17.657Z,9.10
2023-03-03T23:08:44.124Z,9.10
2023-03-03T23:11:10.604Z,9.10
2023-03-03T23:13:37.077Z,9.10
2023-03-03T23:16:03.588Z,9.10
2023-03-03T23:18:30.063Z,9.10
2023-03-03T23:20:56.530Z,9.10
2023-03-03T23:23:22.987Z,9.10
2023-03-03T23:25:49.449Z,9.20
2023-03-03T23:28:15.927Z,9.10
2023-03-03T23:30:42.410Z,9.10
2023-03-03T23:33:08.883Z,9.10
2023-03-03T23:35:39.234Z,9.10
2023-03-03T23:38:05.731Z,9.10
2023-03-03T23:40:32.223Z,9.10
2023-03-03T23:42:58.720Z,9.10
2023-03-03T23:45:25.185Z,9.10
2023-03-03T23:47:51.657Z,9.10
2023-03-03T23:50:18.158Z,9.10
2023-03-03T23:52:44.661Z,9.10
2023-03-03T23:55:11.138Z,9.10
2023-03-03T23:57:37.622Z,9.10
